13/03/05 - 22h:38mDenunciar

McDonnell Douglas F-4E Phantom II

Foto de Baldur Sveinsson, retirada do site Airliners.net.





METAR SBPB 140100Z 02006KT 9999 BKN017 BKN300 27/26 Q1010=

Comentários (0)

Fotos postadas a mais de 15 dias não podem receber comentários.